Time;durP1;ratioP1;P1;durP2;ratioP2;P2;SDS_P1;SDS_P2;PMS_P1;PMS_P2;Temp;Humidity;BMP_temperature;BMP_pressure;BME280_temperature;BME280_humidity;BME280_pressure;Samples;Min_cycle;Max_cycle;Signal;HPM_P1;HPM_P2
2021/05/04 00:02:04;;;;;;;6.65;4.32;;;12.80;90.00;;;;;;5111051;28;20027;-65
2021/05/04 00:04:30;;;;;;;6.32;4.25;;;12.90;88.00;;;;;;5110973;28;20028;-66
2021/05/04 00:06:56;;;;;;;6.07;4.10;;;13.00;87.60;;;;;;5110897;28;20032;-66
2021/05/04 00:09:22;;;;;;;5.53;4.40;;;12.90;87.20;;;;;;5110173;28;20040;-66
2021/05/04 00:11:47;;;;;;;5.93;4.22;;;12.90;86.60;;;;;;5108995;28;20493;-65
2021/05/04 00:14:13;;;;;;;5.10;4.15;;;12.80;87.30;;;;;;5110823;28;20099;-65
2021/05/04 00:16:38;;;;;;;9.00;4.43;;;12.80;87.40;;;;;;5110732;28;20103;-65
2021/05/04 00:19:04;;;;;;;7.60;4.40;;;12.90;87.00;;;;;;5110693;28;20024;-66
2021/05/04 00:21:30;;;;;;;8.35;4.18;;;12.90;87.30;;;;;;5096453;28;20035;-66
2021/05/04 00:23:56;;;;;;;8.23;4.25;;;12.90;86.80;;;;;;5096966;28;20447;-66
2021/05/04 00:26:22;;;;;;;5.35;3.85;;;12.90;86.50;;;;;;5096988;28;20052;-66
2021/05/04 00:28:47;;;;;;;4.35;3.45;;;12.90;86.70;;;;;;5096602;28;20055;-66
2021/05/04 00:31:14;;;;;;;5.78;4.00;;;12.90;85.20;;;;;;5096899;28;20496;-66
2021/05/04 00:33:39;;;;;;;6.85;4.30;;;12.90;86.20;;;;;;5096570;28;20016;-66
2021/05/04 00:36:05;;;;;;;5.63;3.63;;;13.00;84.70;;;;;;5096813;28;20469;-65
2021/05/04 00:38:31;;;;;;;9.25;3.83;;;13.00;84.80;;;;;;5096762;28;20028;-66
2021/05/04 00:40:56;;;;;;;6.72;3.58;;;12.90;85.70;;;;;;5095564;28;20029;-66
2021/05/04 00:43:31;;;;;;;7.53;3.50;;;12.90;85.20;;;;;;5096646;28;20032;-66
2021/05/04 00:45:57;;;;;;;4.28;3.65;;;12.90;85.00;;;;;;5096591;28;20024;-66
2021/05/04 00:48:23;;;;;;;7.53;3.63;;;13.00;84.40;;;;;;5096526;28;20373;-66
2021/05/04 00:50:49;;;;;;;6.03;3.70;;;12.90;84.90;;;;;;5095080;28;20436;-66
2021/05/04 00:53:15;;;;;;;4.45;3.60;;;12.90;85.50;;;;;;5096462;28;20055;-66
2021/05/04 00:55:42;;;;;;;9.40;3.85;;;12.90;85.20;;;;;;5095285;28;20034;-66
2021/05/04 00:58:09;;;;;;;5.90;3.85;;;12.90;85.40;;;;;;5096087;28;20035;-66
2021/05/04 01:00:34;;;;;;;4.88;3.58;;;12.80;85.60;;;;;;5096063;28;20020;-65
2021/05/04 01:03:02;;;;;;;5.55;4.07;;;12.80;86.40;;;;;;5095956;28;20469;-66
2021/05/04 01:05:28;;;;;;;4.93;3.05;;;12.80;85.70;;;;;;5095677;28;20028;-66
2021/05/04 01:07:54;;;;;;;5.75;3.28;;;12.90;86.20;;;;;;5094461;28;20435;-66
2021/05/04 01:10:20;;;;;;;6.28;3.60;;;12.90;85.50;;;;;;5096150;28;20476;-66
2021/05/04 01:12:46;;;;;;;7.22;3.47;;;12.90;86.00;;;;;;5095811;28;20028;-66
2021/05/04 01:15:12;;;;;;;5.07;3.40;;;12.90;86.30;;;;;;5095500;28;20020;-66
2021/05/04 01:17:38;;;;;;;4.05;3.00;;;12.90;85.70;;;;;;5094410;28;20020;-66
2021/05/04 01:20:05;;;;;;;5.75;3.72;;;13.00;84.70;;;;;;5095986;28;20100;-66
2021/05/04 01:22:30;;;;;;;5.97;3.22;;;13.00;84.60;;;;;;5095604;28;20017;-65
2021/05/04 01:24:56;;;;;;;6.05;3.10;;;12.90;84.90;;;;;;5094690;28;20084;-66
2021/05/04 01:27:22;;;;;;;4.75;3.38;;;13.00;85.00;;;;;;5095899;28;20055;-66
2021/05/04 01:29:47;;;;;;;5.25;3.42;;;13.00;85.20;;;;;;5095734;28;20052;-66
2021/05/04 01:32:13;;;;;;;4.07;3.20;;;12.90;85.30;;;;;;5092932;28;20165;-66
2021/05/04 01:34:38;;;;;;;5.32;3.22;;;12.80;86.70;;;;;;5095124;28;20020;-65
2021/05/04 01:37:04;;;;;;;4.28;2.95;;;12.80;86.10;;;;;;5095650;28;20072;-66
2021/05/04 01:39:47;;;;;;;4.45;3.35;;;13.00;85.30;;;;;;5095557;28;20480;-66
2021/05/04 01:42:14;;;;;;;4.47;3.30;;;13.00;85.60;;;;;;5095302;28;20052;-66
2021/05/04 01:44:40;;;;;;;6.85;3.90;;;12.90;86.20;;;;;;5095475;28;20028;-66
2021/05/04 01:47:07;;;;;;;4.80;2.58;;;12.90;86.70;;;;;;5076804;28;20126;-66
2021/05/04 01:49:32;;;;;;;3.80;2.97;;;12.90;85.50;;;;;;5095357;28;20052;-66
2021/05/04 01:52:01;;;;;;;6.15;3.15;;;13.00;85.60;;;;;;5095344;28;20089;-65
2021/05/04 01:54:26;;;;;;;5.18;2.97;;;13.00;85.40;;;;;;5093773;28;20024;-66
2021/05/04 01:56:54;;;;;;;5.90;3.33;;;13.00;85.20;;;;;;5095272;28;20024;-65
2021/05/04 01:59:21;;;;;;;7.35;3.20;;;13.00;85.60;;;;;;5093365;28;20078;-65
2021/05/04 02:01:47;;;;;;;5.18;3.20;;;13.00;85.10;;;;;;5095160;28;20024;-65
2021/05/04 02:04:13;;;;;;;5.85;3.38;;;13.00;85.00;;;;;;5093299;28;20028;-66
2021/05/04 02:06:38;;;;;;;4.22;2.90;;;13.10;83.90;;;;;;5095061;28;20527;-65
2021/05/04 02:09:07;;;;;;;4.72;3.03;;;13.20;83.00;;;;;;5094426;28;20074;-66
2021/05/04 02:11:32;;;;;;;8.65;2.60;;;13.10;83.80;;;;;;5094411;28;20016;-66
2021/05/04 02:13:58;;;;;;;6.18;3.05;;;13.10;84.30;;;;;;5094656;28;20031;-66
2021/05/04 02:16:24;;;;;;;10.55;2.80;;;13.10;83.50;;;;;;5094901;28;20059;-66
2021/05/04 02:18:50;;;;;;;36.92;4.75;;;13.20;81.60;;;;;;5094814;28;20024;-65
2021/05/04 02:21:17;;;;;;;7.15;2.40;;;13.20;80.30;;;;;;5094823;28;20054;-66
2021/05/04 02:23:42;;;;;;;14.60;2.72;;;13.30;72.20;;;;;;5094496;28;20457;-65
2021/05/04 02:26:09;;;;;;;2.60;1.75;;;13.30;76.70;;;;;;5094732;28;20060;-65
2021/05/04 02:28:35;;;;;;;6.57;2.42;;;13.30;77.20;;;;;;5094082;28;20042;-65
2021/05/04 02:31:00;;;;;;;4.93;2.42;;;13.30;78.60;;;;;;5094645;28;20376;-66
2021/05/04 02:33:29;;;;;;;6.95;2.72;;;13.20;80.40;;;;;;5094609;28;20046;-65
2021/05/04 02:35:55;;;;;;;4.18;2.03;;;13.20;81.70;;;;;;5094568;28;20410;-65
2021/05/04 02:38:21;;;;;;;4.35;2.30;;;13.10;81.60;;;;;;5093385;28;20028;-65
2021/05/04 02:40:46;;;;;;;4.95;2.40;;;13.10;82.70;;;;;;5093943;28;20065;-65
2021/05/04 02:43:12;;;;;;;3.42;2.55;;;13.00;84.80;;;;;;5092407;28;20031;-66
2021/05/04 02:45:37;;;;;;;6.13;2.60;;;13.00;85.10;;;;;;5093851;28;20046;-65
2021/05/04 02:48:03;;;;;;;3.63;2.58;;;13.00;86.20;;;;;;5093138;28;20031;-66
2021/05/04 02:50:29;;;;;;;4.80;2.13;;;13.00;87.90;;;;;;5094048;28;20066;-66
2021/05/04 02:52:54;;;;;;;13.13;2.30;;;13.00;90.10;;;;;;5094053;28;20105;-66
2021/05/04 02:55:22;;;;;;;9.95;2.70;;;12.80;91.30;;;;;;5094003;28;20059;-66
2021/05/04 02:57:47;;;;;;;6.68;2.67;;;12.60;92.70;;;;;;5093721;28;20020;-66
2021/05/04 03:00:13;;;;;;;3.88;2.20;;;12.60;92.10;;;;;;5092429;28;20028;-65
2021/05/04 03:02:39;;;;;;;11.65;2.60;;;12.60;93.80;;;;;;5093648;28;20457;-65
2021/05/04 03:05:05;;;;;;;6.18;2.20;;;12.50;96.60;;;;;;5092761;28;20035;-66
2021/05/04 03:07:31;;;;;;;7.35;2.80;;;12.30;99.50;;;;;;5094136;28;20012;-66
2021/05/04 03:09:56;;;;;;;3.35;2.55;;;12.00;99.90;;;;;;5093368;28;20040;-66
2021/05/04 03:12:22;;;;;;;6.13;2.42;;;11.80;99.90;;;;;;5093849;28;20035;-65
2021/05/04 03:14:47;;;;;;;2.83;2.28;;;11.70;99.90;;;;;;5094094;28;20450;-65
2021/05/04 03:17:13;;;;;;;7.28;2.70;;;11.60;99.90;;;;;;5094108;28;20028;-65
2021/05/04 03:19:38;;;;;;;4.03;2.92;;;11.40;99.90;;;;;;5092542;28;20032;-65
2021/05/04 03:22:04;;;;;;;6.47;3.22;;;11.10;99.90;;;;;;5094067;28;20081;-65
2021/05/04 03:24:29;;;;;;;4.32;2.80;;;10.90;99.90;;;;;;5094041;28;20035;-65
2021/05/04 03:26:55;;;;;;;7.25;3.42;;;10.80;99.90;;;;;;5093723;28;20028;-66
2021/05/04 03:29:20;;;;;;;7.75;3.40;;;10.70;99.90;;;;;;5093641;28;20032;-65
2021/05/04 03:31:46;;;;;;;5.93;3.10;;;10.60;99.90;;;;;;5093944;28;20049;-65
2021/05/04 03:34:11;;;;;;;5.57;3.35;;;10.40;99.90;;;;;;5093921;28;20069;-65
2021/05/04 03:36:37;;;;;;;3.97;2.65;;;10.30;99.90;;;;;;5093847;28;20049;-65
2021/05/04 03:39:03;;;;;;;4.43;3.30;;;10.10;99.90;;;;;;5093841;28;20036;-65
2021/05/04 03:41:29;;;;;;;3.58;3.28;;;10.00;99.90;;;;;;5093790;28;20020;-65
2021/05/04 03:43:54;;;;;;;7.68;3.22;;;9.80;99.90;;;;;;5093284;28;20081;-65
2021/05/04 03:46:20;;;;;;;4.35;3.13;;;9.60;99.90;;;;;;5092601;28;20028;-65
2021/05/04 03:48:45;;;;;;;7.15;2.83;;;9.50;99.90;;;;;;5092579;28;20424;-65
2021/05/04 03:51:11;;;;;;;6.78;3.10;;;9.40;99.90;;;;;;5092299;28;20465;-65
2021/05/04 03:53:37;;;;;;;6.70;3.28;;;9.30;99.90;;;;;;5093682;28;20365;-65
2021/05/04 03:56:04;;;;;;;6.00;3.35;;;9.20;99.90;;;;;;5096145;28;20020;-65
2021/05/04 03:58:31;;;;;;;6.53;3.40;;;9.10;99.90;;;;;;5097487;28;20024;-65
2021/05/04 04:00:56;;;;;;;7.35;3.13;;;9.00;99.90;;;;;;5097416;28;20039;-65
2021/05/04 04:03:22;;;;;;;6.60;3.20;;;9.00;99.90;;;;;;5097404;28;20028;-65
2021/05/04 04:05:47;;;;;;;5.50;3.30;;;9.00;99.90;;;;;;5095797;28;20062;-65
2021/05/04 04:08:13;;;;;;;4.22;2.92;;;8.90;99.90;;;;;;5096869;28;20164;-65
2021/05/04 04:10:39;;;;;;;4.47;3.03;;;8.90;99.90;;;;;;5096069;28;20023;-65
2021/05/04 04:13:06;;;;;;;6.78;3.20;;;8.80;99.90;;;;;;5095646;28;20023;-65
2021/05/04 04:15:32;;;;;;;8.82;3.53;;;8.80;99.90;;;;;;5096975;28;20468;-65
2021/05/04 04:17:57;;;;;;;4.57;3.42;;;8.80;99.90;;;;;;5096977;28;20020;-65
2021/05/04 04:20:23;;;;;;;8.75;3.30;;;8.70;99.90;;;;;;5096984;28;20034;-65
2021/05/04 04:22:49;;;;;;;6.85;4.07;;;8.60;99.90;;;;;;5095111;28;20020;-65
2021/05/04 04:25:14;;;;;;;6.43;3.83;;;8.60;99.90;;;;;;5096263;28;20020;-65
2021/05/04 04:27:40;;;;;;;4.93;3.60;;;8.60;99.90;;;;;;5095085;28;20020;-65
2021/05/04 04:30:06;;;;;;;4.00;3.47;;;8.60;99.90;;;;;;5096424;28;20103;-65
2021/05/04 04:32:31;;;;;;;8.10;3.50;;;8.60;99.90;;;;;;5078601;28;20024;-65
2021/05/04 04:34:57;;;;;;;7.85;3.70;;;8.50;99.90;;;;;;5096693;28;20050;-65
2021/05/04 04:37:22;;;;;;;5.38;3.65;;;8.60;99.90;;;;;;5096603;28;20028;-65
2021/05/04 04:39:48;;;;;;;5.40;3.20;;;8.60;99.90;;;;;;5096674;28;20020;-65
2021/05/04 04:42:14;;;;;;;5.60;3.30;;;8.60;99.90;;;;;;5096573;28;20035;-65
2021/05/04 04:44:39;;;;;;;5.60;3.53;;;8.60;99.90;;;;;;5094989;28;20016;-65
2021/05/04 04:47:06;;;;;;;8.48;3.60;;;8.60;99.90;;;;;;5096429;28;20057;-65
2021/05/04 04:49:32;;;;;;;5.80;3.17;;;8.60;99.90;;;;;;5096270;28;20016;-66
2021/05/04 04:51:57;;;;;;;8.65;3.15;;;8.70;99.90;;;;;;5096033;28;20027;-65
2021/05/04 04:54:23;;;;;;;5.85;2.72;;;8.70;99.90;;;;;;5096004;28;20021;-65
2021/05/04 04:56:49;;;;;;;6.32;3.28;;;8.70;99.90;;;;;;5096211;28;20032;-65
2021/05/04 04:59:14;;;;;;;3.88;2.90;;;8.80;99.90;;;;;;5094670;28;20028;-65
2021/05/04 05:01:40;;;;;;;3.95;3.08;;;8.80;99.90;;;;;;5096108;28;20032;-65
2021/05/04 05:04:06;;;;;;;5.15;2.90;;;8.80;99.90;;;;;;5094319;28;20245;-65
2021/05/04 05:06:32;;;;;;;4.68;2.75;;;8.80;99.90;;;;;;5095873;28;20555;-65
2021/05/04 05:08:58;;;;;;;8.70;2.85;;;8.90;99.90;;;;;;5094193;28;20048;-66
2021/05/04 05:11:24;;;;;;;8.82;2.72;;;8.90;99.90;;;;;;5096003;28;20514;-65
2021/05/04 05:13:49;;;;;;;3.35;2.65;;;8.90;99.90;;;;;;5094131;28;20069;-65
2021/05/04 05:16:18;;;;;;;4.68;2.38;;;8.90;99.90;;;;;;5095863;28;20016;-65
2021/05/04 05:18:43;;;;;;;4.10;2.30;;;8.90;99.90;;;;;;5095827;28;20028;-65
2021/05/04 05:21:10;;;;;;;5.10;2.38;;;9.00;99.90;;;;;;5095725;28;20024;-65
2021/05/04 05:23:36;;;;;;;3.90;2.58;;;9.00;99.90;;;;;;5095460;28;20385;-65
2021/05/04 05:26:03;;;;;;;3.40;2.92;;;9.00;99.90;;;;;;5095657;28;20024;-65
2021/05/04 05:28:28;;;;;;;3.00;2.30;;;8.90;99.90;;;;;;5094980;28;20028;-65
2021/05/04 05:30:54;;;;;;;3.70;2.60;;;9.00;99.90;;;;;;5094366;28;20027;-65
2021/05/04 05:33:20;;;;;;;4.20;2.63;;;8.90;99.90;;;;;;5093917;28;20027;-65
2021/05/04 05:35:46;;;;;;;5.68;2.75;;;9.00;99.90;;;;;;5094987;28;20054;-65
2021/05/04 05:38:12;;;;;;;3.08;2.50;;;9.10;99.90;;;;;;5095409;28;20036;-65
2021/05/04 05:40:38;;;;;;;3.00;2.13;;;9.10;99.90;;;;;;5095115;28;20024;-65
2021/05/04 05:43:04;;;;;;;6.47;2.55;;;9.10;99.90;;;;;;5093575;28;20024;-65
2021/05/04 05:45:29;;;;;;;3.47;2.33;;;9.20;99.90;;;;;;5094546;28;20035;-65
2021/05/04 05:47:55;;;;;;;7.07;2.90;;;9.20;99.90;;;;;;5094594;28;20036;-65
2021/05/04 05:50:20;;;;;;;3.80;2.33;;;9.30;99.90;;;;;;5094930;28;20020;-65
2021/05/04 05:52:46;;;;;;;5.35;2.58;;;9.40;99.90;;;;;;5094966;28;20032;-65
2021/05/04 05:55:12;;;;;;;3.28;2.78;;;9.30;99.90;;;;;;5094436;28;20461;-65
2021/05/04 05:57:37;;;;;;;3.95;2.30;;;9.40;99.90;;;;;;5093377;28;20073;-65
2021/05/04 06:00:05;;;;;;;2.92;1.90;;;9.40;99.90;;;;;;5094406;28;20039;-65
2021/05/04 06:02:31;;;;;;;2.88;2.22;;;9.50;99.90;;;;;;5094267;28;20027;-65
2021/05/04 06:04:57;;;;;;;2.25;1.75;;;9.50;99.90;;;;;;5094053;28;20031;-65
2021/05/04 06:07:22;;;;;;;4.13;2.13;;;9.50;99.90;;;;;;5093034;28;20389;-66
2021/05/04 06:09:48;;;;;;;3.70;2.20;;;9.50;99.90;;;;;;5094061;28;20048;-65
2021/05/04 06:12:13;;;;;;;4.40;2.00;;;9.60;99.90;;;;;;5094655;28;20059;-65
2021/05/04 06:14:39;;;;;;;4.60;1.52;;;9.60;99.90;;;;;;5094509;28;20024;-65
2021/05/04 06:17:04;;;;;;;4.15;1.88;;;9.60;99.90;;;;;;5094330;28;20095;-65
2021/05/04 06:19:30;;;;;;;2.88;1.92;;;9.60;99.90;;;;;;5094273;28;20431;-66
2021/05/04 06:21:56;;;;;;;6.03;2.33;;;9.70;99.90;;;;;;5094326;28;20469;-65
2021/05/04 06:24:21;;;;;;;3.60;1.95;;;9.70;99.90;;;;;;5094608;28;20377;-65
2021/05/04 06:26:47;;;;;;;4.38;2.28;;;9.70;99.90;;;;;;5094147;28;20367;-65
2021/05/04 06:29:12;;;;;;;6.28;2.15;;;9.70;99.90;;;;;;5093547;28;20028;-65
2021/05/04 06:31:38;;;;;;;7.00;2.38;;;9.60;99.90;;;;;;5092820;28;20031;-65
2021/05/04 06:34:05;;;;;;;2.00;1.77;;;9.50;99.90;;;;;;5093525;28;20020;-65
2021/05/04 06:36:31;;;;;;;4.80;1.80;;;9.40;99.90;;;;;;5092478;28;20016;-65
2021/05/04 06:38:57;;;;;;;4.85;2.35;;;9.40;99.90;;;;;;5093119;28;20378;-65
2021/05/04 06:41:22;;;;;;;5.60;2.08;;;9.30;99.90;;;;;;5089321;28;20031;-65
2021/05/04 06:43:50;;;;;;;2.75;2.42;;;9.30;99.90;;;;;;5091429;28;20113;-65
2021/05/04 06:46:16;;;;;;;3.47;2.35;;;9.30;99.90;;;;;;5092764;28;20028;-65
2021/05/04 06:48:41;;;;;;;5.95;2.42;;;9.20;99.90;;;;;;5092500;28;20020;-65
2021/05/04 06:51:07;;;;;;;5.75;2.45;;;9.20;99.90;;;;;;5087604;28;20074;-65
2021/05/04 06:53:32;;;;;;;3.72;2.13;;;9.30;99.90;;;;;;5091967;28;20020;-65
2021/05/04 06:55:58;;;;;;;3.40;2.20;;;9.20;99.90;;;;;;5088283;28;20477;-65
2021/05/04 06:58:23;;;;;;;3.22;2.40;;;9.20;99.90;;;;;;5075445;28;20062;-65
2021/05/04 07:00:49;;;;;;;6.28;2.40;;;9.20;99.90;;;;;;5091307;28;20489;-65
2021/05/04 07:03:14;;;;;;;2.33;2.13;;;9.30;99.90;;;;;;5089418;28;20543;-65
2021/05/04 07:05:40;;;;;;;3.50;2.05;;;9.40;99.90;;;;;;5091396;28;20036;-65
2021/05/04 07:08:06;;;;;;;3.83;2.50;;;9.50;99.90;;;;;;5091710;28;20115;-65
2021/05/04 07:10:31;;;;;;;3.63;2.00;;;9.80;99.90;;;;;;5074326;28;20024;-65
2021/05/04 07:12:58;;;;;;;3.88;2.17;;;10.20;99.90;;;;;;5092587;28;20103;-65
2021/05/04 07:15:23;;;;;;;2.85;2.15;;;10.40;99.90;;;;;;5090022;28;20027;-65
2021/05/04 07:17:49;;;;;;;6.18;2.05;;;10.80;99.90;;;;;;5090117;28;20077;-65
2021/05/04 07:20:19;;;;;;;7.03;2.05;;;10.90;99.90;;;;;;5091544;28;20020;-65
2021/05/04 07:22:46;;;;;;;7.07;2.20;;;11.20;99.90;;;;;;5091752;28;20024;-65
2021/05/04 07:25:12;;;;;;;4.97;2.10;;;11.20;99.90;;;;;;5092166;28;20020;-65
2021/05/04 07:27:38;;;;;;;3.75;2.08;;;11.10;99.90;;;;;;5092934;28;20153;-65
2021/05/04 07:30:04;;;;;;;5.95;2.00;;;11.20;99.90;;;;;;5092862;28;20486;-66
2021/05/04 07:32:30;;;;;;;5.10;2.00;;;11.20;99.90;;;;;;5095659;28;20023;-65
2021/05/04 07:34:55;;;;;;;6.43;2.08;;;11.40;99.90;;;;;;5096274;28;20020;-66
2021/05/04 07:37:21;;;;;;;4.60;1.92;;;11.50;99.90;;;;;;5097156;28;20028;-65
2021/05/04 07:39:46;;;;;;;1.52;1.40;;;11.20;99.90;;;;;;5075167;28;20044;-65
2021/05/04 07:42:12;;;;;;;2.88;2.13;;;10.90;99.90;;;;;;5092706;28;20020;-65
2021/05/04 07:44:38;;;;;;;4.43;1.90;;;10.80;99.90;;;;;;5096121;28;20024;-65
2021/05/04 07:47:03;;;;;;;2.60;1.90;;;10.80;99.90;;;;;;5095757;28;20047;-65
2021/05/04 07:49:34;;;;;;;4.93;1.92;;;10.90;99.90;;;;;;5096569;28;20103;-65
2021/05/04 07:52:00;;;;;;;3.70;2.22;;;10.80;99.90;;;;;;5096611;28;20069;-65
2021/05/04 07:54:25;;;;;;;2.20;1.83;;;10.90;99.90;;;;;;5095700;28;20024;-66
2021/05/04 07:56:51;;;;;;;5.18;1.90;;;11.00;99.90;;;;;;5096431;28;20421;-65
2021/05/04 07:59:16;;;;;;;2.53;1.92;;;10.80;99.90;;;;;;5095431;28;20032;-65
2021/05/04 08:01:42;;;;;;;2.95;1.70;;;10.60;99.90;;;;;;5094169;28;20103;-65
2021/05/04 08:04:07;;;;;;;3.20;1.70;;;10.50;99.90;;;;;;5094349;28;20036;-65
2021/05/04 08:06:33;;;;;;;3.83;1.80;;;10.50;99.90;;;;;;5072871;28;20078;-65
2021/05/04 08:08:59;;;;;;;3.88;1.88;;;10.50;99.90;;;;;;5075732;28;20454;-65
2021/05/04 08:11:27;;;;;;;2.15;1.50;;;10.50;99.90;;;;;;5096316;28;20446;-65
2021/05/04 08:13:52;;;;;;;2.35;2.10;;;10.40;99.90;;;;;;5095199;28;20031;-65
2021/05/04 08:16:19;;;;;;;3.70;1.95;;;10.20;99.90;;;;;;5093599;28;20028;-65
2021/05/04 08:18:47;;;;;;;3.65;1.90;;;10.40;99.90;;;;;;5095313;28;20034;-65
2021/05/04 08:21:12;;;;;;;3.53;1.70;;;10.50;99.90;;;;;;5095366;28;20032;-65
2021/05/04 08:23:38;;;;;;;3.20;2.20;;;10.40;99.90;;;;;;5096389;28;20031;-65
2021/05/04 08:26:03;;;;;;;3.05;1.27;;;10.40;99.90;;;;;;5096300;28;20028;-65
2021/05/04 08:28:29;;;;;;;3.88;1.42;;;10.50;99.90;;;;;;5094506;28;20050;-65
2021/05/04 08:30:54;;;;;;;4.72;2.22;;;10.60;99.90;;;;;;5095148;28;20059;-65
2021/05/04 08:33:21;;;;;;;5.35;2.13;;;10.80;99.90;;;;;;5095641;28;20347;-65
2021/05/04 08:35:47;;;;;;;3.03;2.30;;;10.70;99.90;;;;;;5077911;28;20032;-65
2021/05/04 08:38:13;;;;;;;3.42;1.85;;;10.70;99.90;;;;;;5092787;28;20062;-65
2021/05/04 08:40:39;;;;;;;2.63;1.90;;;10.80;99.90;;;;;;5085826;28;20154;-66
2021/05/04 08:43:05;;;;;;;2.47;1.88;;;10.80;99.90;;;;;;5095561;28;20413;-65
2021/05/04 08:45:33;;;;;;;5.45;1.98;;;10.70;99.90;;;;;;5095291;28;20024;-65
2021/05/04 08:47:59;;;;;;;3.90;1.83;;;10.50;99.90;;;;;;5095514;28;20020;-66
2021/05/04 08:50:25;;;;;;;2.15;1.95;;;10.30;99.90;;;;;;5095255;28;20031;-66
2021/05/04 08:52:52;;;;;;;2.90;2.38;;;10.10;99.90;;;;;;5093664;28;20016;-66
2021/05/04 08:55:19;;;;;;;1.90;1.80;;;10.20;99.90;;;;;;5094819;28;20377;-66
2021/05/04 08:57:44;;;;;;;3.45;2.47;;;10.20;99.90;;;;;;5084263;28;20051;-65
2021/05/04 09:00:12;;;;;;;2.72;2.50;;;9.90;99.90;;;;;;5096027;28;20064;-66
2021/05/04 09:03:09;;;;;;;4.57;2.70;;;10.00;99.90;;;;;;5095871;28;20440;-66
2021/05/04 09:05:52;;;;;;;2.88;2.30;;;10.10;99.90;;;;;;5095105;28;20042;-65
2021/05/04 09:09:04;;;;;;;4.28;2.50;;;10.00;99.90;;;;;;5095552;28;20123;-66
2021/05/04 09:11:46;;;;;;;3.58;2.90;;;10.20;99.90;;;;;;5094340;28;20103;-65
2021/05/04 09:17:08;;;;;;;2.95;2.20;;;10.50;99.90;;;;;;5109635;27;20109;-66
2021/05/04 09:19:39;;;;;;;3.70;2.30;;;10.60;99.90;;;;;;5070551;28;20021;-66
2021/05/04 09:22:05;;;;;;;2.38;2.20;;;10.80;99.90;;;;;;5079860;28;20035;-66
2021/05/04 09:24:42;;;;;;;2.85;2.17;;;10.90;99.90;;;;;;5090156;28;20441;-66
2021/05/04 09:27:16;;;;;;;3.70;2.10;;;11.00;99.90;;;;;;5090336;28;20027;-66
2021/05/04 09:29:51;;;;;;;3.20;2.03;;;11.00;99.90;;;;;;5088159;28;20099;-66
2021/05/04 09:32:22;;;;;;;4.68;2.22;;;11.10;99.90;;;;;;5087788;28;20044;-65
2021/05/04 09:34:53;;;;;;;6.40;2.72;;;11.30;99.90;;;;;;5089936;28;20032;-65
2021/05/04 09:37:24;;;;;;;4.10;2.03;;;11.30;99.90;;;;;;5090312;28;20042;-66
2021/05/04 09:39:50;;;;;;;6.00;2.28;;;11.40;99.90;;;;;;5095151;28;20016;-64
2021/05/04 09:42:16;;;;;;;1.73;1.55;;;11.60;99.90;;;;;;5092749;28;20089;-66
2021/05/04 09:44:46;;;;;;;5.78;2.20;;;11.60;99.90;;;;;;5096856;28;20055;-66
2021/05/04 09:47:17;;;;;;;6.70;2.40;;;11.50;99.90;;;;;;5090058;28;20081;-64
2021/05/04 09:49:43;;;;;;;3.65;2.05;;;11.40;99.90;;;;;;5090406;28;20438;-66
2021/05/04 09:52:23;;;;;;;3.33;2.40;;;11.40;99.90;;;;;;5096872;28;20099;-63
2021/05/04 09:54:49;;;;;;;4.40;2.70;;;11.30;99.90;;;;;;5102437;28;20133;-66
2021/05/04 09:57:39;;;;;;;3.50;2.22;;;11.20;99.90;;;;;;5106233;28;20103;-66
2021/05/04 10:00:08;;;;;;;7.35;2.45;;;11.40;99.90;;;;;;5089722;28;20095;-66
2021/05/04 10:02:34;;;;;;;4.28;2.50;;;11.30;99.90;;;;;;5108388;28;20489;-65
2021/05/04 10:05:01;;;;;;;3.72;2.70;;;11.10;99.90;;;;;;5098048;28;20024;-66
2021/05/04 10:07:30;;;;;;;4.70;2.95;;;10.70;99.90;;;;;;5090623;28;20077;-65
2021/05/04 10:09:57;;;;;;;4.43;3.03;;;10.40;99.90;;;;;;5089948;28;20466;-65
2021/05/04 10:12:23;;;;;;;3.63;2.90;;;10.20;99.90;;;;;;5099154;28;20028;-65
2021/05/04 10:14:51;;;;;;;3.88;3.28;;;10.30;99.90;;;;;;5108798;28;20514;-66
2021/05/04 10:17:17;;;;;;;6.43;3.17;;;10.40;99.90;;;;;;5103388;28;20111;-65
2021/05/04 10:19:47;;;;;;;5.20;2.78;;;10.50;99.90;;;;;;5089694;28;20481;-65
2021/05/04 10:22:13;;;;;;;5.55;3.03;;;10.70;99.90;;;;;;5096359;28;20472;-66
2021/05/04 10:24:41;;;;;;;4.80;2.85;;;11.30;99.90;;;;;;5109722;28;20027;-64
2021/05/04 10:27:08;;;;;;;4.85;2.60;;;11.10;99.90;;;;;;5101457;28;20020;-65
2021/05/04 10:29:36;;;;;;;2.78;2.03;;;11.30;99.90;;;;;;5096127;28;20099;-66
2021/05/04 10:32:03;;;;;;;4.05;2.10;;;12.30;99.90;;;;;;5082581;28;20395;-66
2021/05/04 10:34:33;;;;;;;3.50;1.80;;;12.60;99.90;;;;;;5075619;28;20021;-66
2021/05/04 10:39:51;;;;;;;3.47;1.70;;;12.80;99.90;;;;;;5069750;28;20373;-66
2021/05/04 10:42:34;;;;;;;3.50;1.90;;;13.20;99.90;;;;;;5070956;28;20367;-66
2021/05/04 10:45:05;;;;;;;3.72;1.88;;;13.30;99.90;;;;;;5070577;28;20079;-66
2021/05/04 10:47:48;;;;;;;6.07;2.17;;;13.50;99.90;;;;;;5070305;28;20056;-66
2021/05/04 10:50:22;;;;;;;5.53;2.33;;;13.80;99.90;;;;;;5069422;28;20104;-66
2021/05/04 10:55:46;;;;;;;8.30;2.85;;;13.60;99.90;;;;;;5069656;28;20370;-65
2021/05/04 10:58:14;;;;;;;4.22;1.85;;;13.30;99.90;;;;;;5058023;28;20029;-65
2021/05/04 11:00:58;;;;;;;8.63;2.22;;;13.40;99.90;;;;;;5050429;28;20101;-65
2021/05/04 11:06:13;;;;;;;5.57;2.20;;;14.00;99.90;;;;;;5109232;27;20401;-66
2021/05/04 11:08:47;;;;;;;7.43;1.88;;;14.30;99.90;;;;;;5099921;28;20026;-66
2021/05/04 11:11:36;;;;;;;7.22;2.42;;;14.30;99.90;;;;;;5101302;28;20020;-67
2021/05/04 11:14:05;;;;;;;7.05;2.45;;;14.10;99.90;;;;;;5094984;28;20035;-64
2021/05/04 11:16:41;;;;;;;5.20;1.90;;;14.00;99.90;;;;;;5089835;28;20020;-66
2021/05/04 11:19:10;;;;;;;2.65;1.58;;;13.70;99.90;;;;;;5097964;28;20028;-66
2021/05/04 11:21:42;;;;;;;3.70;2.00;;;13.20;99.90;;;;;;5100209;28;20063;-66
2021/05/04 11:24:11;;;;;;;11.40;2.25;;;12.80;99.90;;;;;;5093892;28;20023;-66
2021/05/04 11:26:58;;;;;;;7.50;3.63;;;12.00;99.90;;;;;;5101749;28;20051;-66
2021/05/04 11:29:38;;;;;;;8.85;2.92;;;11.10;99.90;;;;;;5069849;28;20019;-66
2021/05/04 11:32:09;;;;;;;7.25;2.53;;;10.50;99.90;;;;;;5089200;28;20024;-65
2021/05/04 11:40:24;;;;;;;6.75;2.83;;;11.10;99.90;;;;;;5110367;27;20315;-65
2021/05/04 11:42:52;;;;;;;;;;;12.20;99.90;;;;;;5110375;28;20023;-66
2021/05/04 11:45:23;;;;;;;8.52;2.88;;;12.50;99.90;;;;;;5110181;28;19919;-66
2021/05/04 11:47:52;;;;;;;6.47;2.25;;;12.60;99.90;;;;;;5109198;28;20115;-65
2021/05/04 11:52:59;;;;;;;9.65;2.40;;;12.40;99.90;;;;;;5110472;27;20355;-66
2021/05/04 11:55:28;;;;;;;13.07;2.25;;;12.70;99.90;;;;;;5093311;28;20078;-66
2021/05/04 11:57:57;;;;;;;7.43;2.80;;;12.70;99.90;;;;;;5093153;28;20012;-66
2021/05/04 12:00:24;;;;;;;9.32;2.75;;;13.00;99.90;;;;;;5091090;28;20021;-66
2021/05/04 12:02:50;;;;;;;10.65;2.70;;;13.20;99.90;;;;;;5095024;28;20501;-66
2021/05/04 12:05:32;;;;;;;6.85;2.38;;;13.50;99.90;;;;;;5089962;28;20088;-66
2021/05/04 12:07:59;;;;;;;10.70;3.13;;;13.70;99.90;;;;;;5089167;28;20036;-65
2021/05/04 12:10:49;;;;;;;11.52;3.00;;;13.90;99.90;;;;;;5089911;28;20024;-66
2021/05/04 12:13:21;;;;;;;12.48;3.72;;;14.10;99.90;;;;;;5088103;28;20036;-66
2021/05/04 12:15:49;;;;;;;14.07;2.97;;;14.00;99.90;;;;;;5087857;28;20029;-66
2021/05/04 12:18:17;;;;;;;10.98;2.95;;;13.80;99.90;;;;;;5089563;28;20085;-66
2021/05/04 12:20:46;;;;;;;7.72;2.45;;;13.50;99.90;;;;;;5091860;28;20025;-66
2021/05/04 12:23:14;;;;;;;10.85;3.47;;;13.30;99.90;;;;;;5069723;28;20366;-66
2021/05/04 12:25:52;;;;;;;8.48;2.97;;;12.90;99.90;;;;;;5082061;28;20024;-66
2021/05/04 12:28:22;;;;;;;14.18;3.67;;;12.50;99.90;;;;;;5088588;28;20051;-66
2021/05/04 12:30:52;;;;;;;12.82;3.28;;;12.10;99.90;;;;;;5089694;28;20047;-66
2021/05/04 12:33:20;;;;;;;9.18;3.10;;;11.90;99.90;;;;;;5089241;28;20156;-66
2021/05/04 12:35:51;;;;;;;10.32;2.78;;;12.10;99.90;;;;;;5089919;28;20534;-64
2021/05/04 12:38:22;;;;;;;13.38;3.95;;;12.50;99.90;;;;;;5084993;28;20032;-66
2021/05/04 12:41:07;;;;;;;9.85;2.90;;;13.10;99.90;;;;;;5091403;28;20032;-64
2021/05/04 12:43:35;;;;;;;9.98;2.47;;;13.50;99.90;;;;;;5104223;28;20061;-64
2021/05/04 12:46:05;;;;;;;7.50;2.63;;;13.80;99.90;;;;;;5090168;28;20465;-64
2021/05/04 12:48:31;;;;;;;10.00;2.38;;;13.80;99.90;;;;;;5089828;28;20025;-64
2021/05/04 12:50:59;;;;;;;9.88;2.75;;;14.00;99.90;;;;;;5088279;28;20052;-64
2021/05/04 12:53:32;;;;;;;7.93;2.20;;;13.90;99.90;;;;;;5088147;28;20017;-65
2021/05/04 12:55:59;;;;;;;5.40;2.38;;;14.10;99.90;;;;;;5089762;28;20020;-65
2021/05/04 12:58:25;;;;;;;15.45;3.45;;;14.20;99.90;;;;;;5089025;28;20020;-65
2021/05/04 13:01:12;;;;;;;16.52;2.88;;;14.10;99.90;;;;;;5088410;28;20039;-65
2021/05/04 13:03:47;;;;;;;10.95;3.08;;;13.90;99.90;;;;;;5077056;28;20111;-65
2021/05/04 13:06:19;;;;;;;7.15;2.50;;;13.60;99.90;;;;;;5073177;28;20474;-65
2021/05/04 13:08:53;;;;;;;13.25;2.85;;;13.70;99.90;;;;;;5083323;28;20107;-65
2021/05/04 13:15:16;;;;;;;10.68;3.38;;;13.20;99.90;;;;;;5078903;28;20380;-65